sensor_id;sensor_type;location;lat;lon;timestamp;pressure;altitude;pressure_sealevel;temperature;humidity
32851;BME280;19202;48.992;8.390;2022-12-16T00:00:26;99301.66;;;1.51;74.14
32851;BME280;19202;48.992;8.390;2022-12-16T00:06:06;99304.19;;;1.59;73.96
32851;BME280;19202;48.992;8.390;2022-12-16T00:11:44;99315.41;;;1.62;74.04
32851;BME280;19202;48.992;8.390;2022-12-16T00:17:22;99323.34;;;1.53;74.54
32851;BME280;19202;48.992;8.390;2022-12-16T00:23:00;99319.84;;;1.56;74.22
32851;BME280;19202;48.992;8.390;2022-12-16T00:28:39;99325.16;;;1.50;74.86
32851;BME280;19202;48.992;8.390;2022-12-16T00:34:17;99335.59;;;1.50;74.73
32851;BME280;19202;48.992;8.390;2022-12-16T00:39:55;99336.44;;;1.50;74.83
32851;BME280;19202;48.992;8.390;2022-12-16T00:45:33;99343.38;;;1.53;74.90
32851;BME280;19202;48.992;8.390;2022-12-16T00:51:10;99359.97;;;1.46;75.18
32851;BME280;19202;48.992;8.390;2022-12-16T00:56:48;99376.59;;;1.39;75.33
32851;BME280;19202;48.992;8.390;2022-12-16T01:02:26;99382.59;;;1.44;75.02
32851;BME280;19202;48.992;8.390;2022-12-16T01:08:04;99373.03;;;1.44;74.87
32851;BME280;19202;48.992;8.390;2022-12-16T01:13:42;99384.31;;;1.45;74.76
32851;BME280;19202;48.992;8.390;2022-12-16T01:19:21;99382.69;;;1.38;75.30
32851;BME280;19202;48.992;8.390;2022-12-16T01:24:59;99397.53;;;1.31;75.31
32851;BME280;19202;48.992;8.390;2022-12-16T01:30:37;99390.69;;;1.24;75.61
32851;BME280;19202;48.992;8.390;2022-12-16T01:36:15;99388.03;;;1.29;75.79
32851;BME280;19202;48.992;8.390;2022-12-16T01:41:53;99384.53;;;1.30;75.56
32851;BME280;19202;48.992;8.390;2022-12-16T01:47:32;99389.75;;;1.30;76.00
32851;BME280;19202;48.992;8.390;2022-12-16T01:53:10;99389.91;;;1.18;75.76
32851;BME280;19202;48.992;8.390;2022-12-16T01:58:49;99394.16;;;1.25;75.38
32851;BME280;19202;48.992;8.390;2022-12-16T02:04:28;99401.13;;;1.24;74.90
32851;BME280;19202;48.992;8.390;2022-12-16T02:10:06;99403.78;;;1.20;73.97
32851;BME280;19202;48.992;8.390;2022-12-16T02:39:38;99422.06;;;1.17;72.49
32851;BME280;19202;48.992;8.390;2022-12-16T02:45:23;99428.16;;;1.16;72.62
32851;BME280;19202;48.992;8.390;2022-12-16T02:51:02;99438.63;;;1.10;71.90
32851;BME280;19202;48.992;8.390;2022-12-16T02:57:03;99446.44;;;1.11;71.21
32851;BME280;19202;48.992;8.390;2022-12-16T03:03:07;99451.00;;;0.93;71.87
32851;BME280;19202;48.992;8.390;2022-12-16T03:08:52;99451.00;;;0.93;71.86
32851;BME280;19202;48.992;8.390;2022-12-16T03:14:33;99457.84;;;1.03;72.15
32851;BME280;19202;48.992;8.390;2022-12-16T03:20:24;99450.88;;;1.05;71.75
32851;BME280;19202;48.992;8.390;2022-12-16T03:26:07;99461.28;;;1.05;70.78
32851;BME280;19202;48.992;8.390;2022-12-16T03:31:51;99460.50;;;0.98;71.54
32851;BME280;19202;48.992;8.390;2022-12-16T03:37:32;99465.69;;;0.98;70.98
32851;BME280;19202;48.992;8.390;2022-12-16T03:43:12;99457.81;;;1.04;71.02
32851;BME280;19202;48.992;8.390;2022-12-16T03:48:51;99471.66;;;1.08;71.31
32851;BME280;19202;48.992;8.390;2022-12-16T03:54:29;99469.06;;;1.06;70.70
32851;BME280;19202;48.992;8.390;2022-12-16T04:00:09;99484.84;;;0.94;70.83
32851;BME280;19202;48.992;8.390;2022-12-16T04:05:47;99486.47;;;1.01;70.91
32851;BME280;19202;48.992;8.390;2022-12-16T04:11:25;99496.00;;;1.07;70.13
32851;BME280;19202;48.992;8.390;2022-12-16T04:17:22;99499.59;;;0.97;70.20
32851;BME280;19202;48.992;8.390;2022-12-16T04:23:19;99510.13;;;0.84;69.12
32851;BME280;19202;48.992;8.390;2022-12-16T04:29:16;99509.44;;;0.64;70.26
32851;BME280;19202;48.992;8.390;2022-12-16T04:34:54;99510.25;;;0.72;70.33
32851;BME280;19202;48.992;8.390;2022-12-16T04:40:32;99524.16;;;0.67;69.76
32851;BME280;19202;48.992;8.390;2022-12-16T04:46:29;99526.88;;;0.56;69.26
32851;BME280;19202;48.992;8.390;2022-12-16T04:52:26;99546.78;;;0.60;69.52
32851;BME280;19202;48.992;8.390;2022-12-16T04:58:23;99546.00;;;0.52;69.44
32851;BME280;19202;48.992;8.390;2022-12-16T05:04:19;99556.41;;;0.52;69.70
32851;BME280;19202;48.992;8.390;2022-12-16T05:10:16;99565.94;;;0.53;69.81
32851;BME280;19202;48.992;8.390;2022-12-16T05:16:13;99575.31;;;0.71;68.53
32851;BME280;19202;48.992;8.390;2022-12-16T05:22:10;99586.78;;;0.47;69.08
32851;BME280;19202;48.992;8.390;2022-12-16T05:28:07;99599.06;;;0.30;69.09
32851;BME280;19202;48.992;8.390;2022-12-16T05:34:03;99614.69;;;0.27;68.44
32851;BME280;19202;48.992;8.390;2022-12-16T05:40:00;99620.78;;;0.26;68.64
32851;BME280;19202;48.992;8.390;2022-12-16T05:45:57;99637.28;;;0.22;68.88
32851;BME280;19202;48.992;8.390;2022-12-16T05:51:54;99643.31;;;0.27;69.06
32851;BME280;19202;48.992;8.390;2022-12-16T05:57:51;99645.03;;;0.27;68.79
32851;BME280;19202;48.992;8.390;2022-12-16T06:03:48;99664.09;;;0.33;69.12
32851;BME280;19202;48.992;8.390;2022-12-16T06:09:45;99667.53;;;0.38;68.68
32851;BME280;19202;48.992;8.390;2022-12-16T06:15:41;99673.59;;;0.37;68.56
32851;BME280;19202;48.992;8.390;2022-12-16T06:21:38;99677.09;;;0.32;68.23
32851;BME280;19202;48.992;8.390;2022-12-16T06:27:35;99691.88;;;0.28;68.61
32851;BME280;19202;48.992;8.390;2022-12-16T06:33:32;99699.72;;;0.22;68.34
32851;BME280;19202;48.992;8.390;2022-12-16T06:39:29;99706.69;;;0.14;68.25
32851;BME280;19202;48.992;8.390;2022-12-16T06:45:26;99716.25;;;0.06;68.38
32851;BME280;19202;48.992;8.390;2022-12-16T06:51:23;99728.41;;;-0.02;67.99
32851;BME280;19202;48.992;8.390;2022-12-16T06:57:19;99741.44;;;-0.13;68.07
32851;BME280;19202;48.992;8.390;2022-12-16T07:03:16;99763.13;;;-0.18;68.24
32851;BME280;19202;48.992;8.390;2022-12-16T07:09:13;99768.28;;;-0.20;68.56
32851;BME280;19202;48.992;8.390;2022-12-16T07:15:10;99780.47;;;-0.31;68.07
32851;BME280;19202;48.992;8.390;2022-12-16T07:21:07;99791.75;;;-0.41;68.76
32851;BME280;19202;48.992;8.390;2022-12-16T07:27:04;99800.38;;;-0.43;68.99
32851;BME280;19202;48.992;8.390;2022-12-16T07:33:01;99816.84;;;-0.46;68.73
32851;BME280;19202;48.992;8.390;2022-12-16T07:38:58;99821.19;;;-0.49;69.08
32851;BME280;19202;48.992;8.390;2022-12-16T07:44:55;99834.16;;;-0.42;68.77
32851;BME280;19202;48.992;8.390;2022-12-16T07:50:51;99835.03;;;-0.37;68.92
32851;BME280;19202;48.992;8.390;2022-12-16T07:56:48;99848.91;;;-0.41;68.85
32851;BME280;19202;48.992;8.390;2022-12-16T08:02:51;99848.03;;;-0.40;68.92
32851;BME280;19202;48.992;8.390;2022-12-16T08:09:05;99861.03;;;-0.31;69.01
32851;BME280;19202;48.992;8.390;2022-12-16T08:15:01;99868.81;;;-0.22;68.64
32851;BME280;19202;48.992;8.390;2022-12-16T08:20:58;99878.28;;;0.35;68.53
32851;BME280;19202;48.992;8.390;2022-12-16T08:26:55;99883.38;;;0.71;67.78
32851;BME280;19202;48.992;8.390;2022-12-16T08:32:52;99888.56;;;0.79;67.36
32851;BME280;19202;48.992;8.390;2022-12-16T08:38:49;99892.06;;;0.76;66.71
32851;BME280;19202;48.992;8.390;2022-12-16T08:44:46;99911.91;;;1.06;66.51
32851;BME280;19202;48.992;8.390;2022-12-16T08:50:43;99912.38;;;3.37;59.07
32851;BME280;19202;48.992;8.390;2022-12-16T08:56:40;99912.91;;;5.49;56.18
32851;BME280;19202;48.992;8.390;2022-12-16T09:02:37;99908.69;;;7.14;50.93
32851;BME280;19202;48.992;8.390;2022-12-16T09:08:34;99922.25;;;8.66;44.19
32851;BME280;19202;48.992;8.390;2022-12-16T09:14:31;99931.38;;;9.98;43.99
32851;BME280;19202;48.992;8.390;2022-12-16T09:20:28;99942.16;;;10.97;41.66
32851;BME280;19202;48.992;8.390;2022-12-16T09:26:26;99948.66;;;11.69;37.47
32851;BME280;19202;48.992;8.390;2022-12-16T09:32:24;99961.03;;;12.41;35.51
32851;BME280;19202;48.992;8.390;2022-12-16T09:38:20;99971.44;;;12.97;38.72
32851;BME280;19202;48.992;8.390;2022-12-16T09:44:25;99968.69;;;12.64;34.96
32851;BME280;19202;48.992;8.390;2022-12-16T09:50:26;99968.09;;;13.11;35.98
32851;BME280;19202;48.992;8.390;2022-12-16T09:56:28;99970.97;;;12.19;33.98
32851;BME280;19202;48.992;8.390;2022-12-16T10:02:26;99980.22;;;11.35;38.37
32851;BME280;19202;48.992;8.390;2022-12-16T10:08:38;99977.53;;;10.33;37.13
32851;BME280;19202;48.992;8.390;2022-12-16T10:14:44;99974.22;;;9.36;38.92
32851;BME280;19202;48.992;8.390;2022-12-16T10:20:48;99982.81;;;8.43;39.50
32851;BME280;19202;48.992;8.390;2022-12-16T10:27:10;99975.38;;;7.71;40.87
32851;BME280;19202;48.992;8.390;2022-12-16T10:33:10;99982.19;;;7.50;42.05
32851;BME280;19202;48.992;8.390;2022-12-16T10:39:31;99981.41;;;8.04;41.13
32851;BME280;19202;48.992;8.390;2022-12-16T10:45:37;99974.16;;;9.15;40.48
32851;BME280;19202;48.992;8.390;2022-12-16T10:51:35;99974.63;;;10.40;40.06
32851;BME280;19202;48.992;8.390;2022-12-16T10:57:55;99986.66;;;11.48;35.46
32851;BME280;19202;48.992;8.390;2022-12-16T11:03:54;99976.28;;;12.55;36.00
32851;BME280;19202;48.992;8.390;2022-12-16T11:09:51;99991.50;;;14.18;35.40
32851;BME280;19202;48.992;8.390;2022-12-16T11:16:26;99986.41;;;15.63;28.48
32851;BME280;19202;48.992;8.390;2022-12-16T11:22:24;99987.06;;;17.28;29.67
32851;BME280;19202;48.992;8.390;2022-12-16T11:28:21;99988.69;;;19.24;27.56
32851;BME280;19202;48.992;8.390;2022-12-16T11:34:18;99989.81;;;21.50;22.27
32851;BME280;19202;48.992;8.390;2022-12-16T11:40:16;99990.78;;;22.89;21.58
32851;BME280;19202;48.992;8.390;2022-12-16T11:46:25;99995.50;;;23.06;21.58
32851;BME280;19202;48.992;8.390;2022-12-16T11:52:23;100013.09;;;19.32;25.61
32851;BME280;19202;48.992;8.390;2022-12-16T11:58:45;100012.13;;;15.92;27.95
32851;BME280;19202;48.992;8.390;2022-12-16T12:04:40;100014.00;;;13.64;30.86
32851;BME280;19202;48.992;8.390;2022-12-16T12:22:43;100035.09;;;9.57;35.51
32851;BME280;19202;48.992;8.390;2022-12-16T12:28:50;100052.06;;;8.48;37.41
32851;BME280;19202;48.992;8.390;2022-12-16T12:35:06;100053.78;;;7.61;38.95
32851;BME280;19202;48.992;8.390;2022-12-16T12:41:18;100066.47;;;7.15;40.55
32851;BME280;19202;48.992;8.390;2022-12-16T12:47:16;100060.59;;;6.72;40.99
32851;BME280;19202;48.992;8.390;2022-12-16T12:53:45;100074.63;;;6.34;41.62
32851;BME280;19202;48.992;8.390;2022-12-16T12:59:53;100069.78;;;6.16;41.51
32851;BME280;19202;48.992;8.390;2022-12-16T13:05:52;100070.94;;;6.05;42.32
32851;BME280;19202;48.992;8.390;2022-12-16T13:24:19;100085.72;;;6.09;43.43
32851;BME280;19202;48.992;8.390;2022-12-16T13:30:24;100095.78;;;6.28;43.47
32851;BME280;19202;48.992;8.390;2022-12-16T13:36:32;100111.72;;;6.21;43.83
32851;BME280;19202;48.992;8.390;2022-12-16T13:48:39;100125.00;;;5.70;44.34
32851;BME280;19202;48.992;8.390;2022-12-16T13:54:45;100139.50;;;5.44;44.72
32851;BME280;19202;48.992;8.390;2022-12-16T14:00:54;100144.22;;;5.25;45.45
32851;BME280;19202;48.992;8.390;2022-12-16T14:06:53;100157.34;;;5.25;45.62
32851;BME280;19202;48.992;8.390;2022-12-16T14:13:06;100165.41;;;5.13;46.10
32851;BME280;19202;48.992;8.390;2022-12-16T14:25:28;100178.94;;;4.86;46.46
32851;BME280;19202;48.992;8.390;2022-12-16T14:31:38;100194.00;;;4.73;47.69
32851;BME280;19202;48.992;8.390;2022-12-16T14:37:36;100207.25;;;4.64;47.74
32851;BME280;19202;48.992;8.390;2022-12-16T14:43:33;100213.44;;;4.57;48.00
32851;BME280;19202;48.992;8.390;2022-12-16T14:49:30;100218.91;;;4.41;48.65
32851;BME280;19202;48.992;8.390;2022-12-16T14:55:33;100227.22;;;4.03;50.16
32851;BME280;19202;48.992;8.390;2022-12-16T15:01:30;100230.72;;;4.03;50.16
32851;BME280;19202;48.992;8.390;2022-12-16T15:07:32;100232.47;;;4.04;50.44
32851;BME280;19202;48.992;8.390;2022-12-16T15:13:33;100242.09;;;3.99;50.75
32851;BME280;19202;48.992;8.390;2022-12-16T15:19:45;100249.13;;;3.93;51.00
32851;BME280;19202;48.992;8.390;2022-12-16T15:25:47;100262.34;;;3.82;51.93
32851;BME280;19202;48.992;8.390;2022-12-16T15:31:45;100273.00;;;3.61;52.42
32851;BME280;19202;48.992;8.390;2022-12-16T15:37:42;100283.44;;;3.63;52.47
32851;BME280;19202;48.992;8.390;2022-12-16T15:43:39;100293.19;;;3.46;53.73
32851;BME280;19202;48.992;8.390;2022-12-16T15:49:37;100301.94;;;3.43;54.04
32851;BME280;19202;48.992;8.390;2022-12-16T15:55:39;100310.66;;;3.43;54.03
32851;BME280;19202;48.992;8.390;2022-12-16T16:01:42;100323.75;;;3.42;54.63
32851;BME280;19202;48.992;8.390;2022-12-16T16:07:39;100325.50;;;3.37;54.31
32851;BME280;19202;48.992;8.390;2022-12-16T16:13:35;100329.94;;;3.32;54.66
32851;BME280;19202;48.992;8.390;2022-12-16T16:19:32;100341.22;;;3.37;55.99
32851;BME280;19202;48.992;8.390;2022-12-16T16:25:29;100346.50;;;3.28;55.76
32851;BME280;19202;48.992;8.390;2022-12-16T16:31:26;100358.72;;;3.23;55.51
32851;BME280;19202;48.992;8.390;2022-12-16T16:37:23;100369.22;;;3.18;55.94
32851;BME280;19202;48.992;8.390;2022-12-16T16:43:20;100376.22;;;3.10;56.14
32851;BME280;19202;48.992;8.390;2022-12-16T16:49:41;100382.31;;;3.14;57.10
32851;BME280;19202;48.992;8.390;2022-12-16T16:55:38;100384.94;;;3.11;56.41
32851;BME280;19202;48.992;8.390;2022-12-16T17:01:35;100400.63;;;3.14;56.42
32851;BME280;19202;48.992;8.390;2022-12-16T17:07:31;100404.09;;;3.16;56.50
32851;BME280;19202;48.992;8.390;2022-12-16T17:13:28;100417.28;;;2.92;57.35
32851;BME280;19202;48.992;8.390;2022-12-16T17:19:25;100404.19;;;2.98;57.47
32851;BME280;19202;48.992;8.390;2022-12-16T17:25:22;100426.00;;;2.79;58.10
32851;BME280;19202;48.992;8.390;2022-12-16T17:31:19;100430.44;;;2.62;59.32
32851;BME280;19202;48.992;8.390;2022-12-16T17:37:16;100433.94;;;2.48;60.33
32851;BME280;19202;48.992;8.390;2022-12-16T17:43:13;100441.75;;;2.48;60.34
32851;BME280;19202;48.992;8.390;2022-12-16T17:49:10;100453.94;;;2.54;60.76
32851;BME280;19202;48.992;8.390;2022-12-16T17:55:07;100466.97;;;2.71;60.07
32851;BME280;19202;48.992;8.390;2022-12-16T18:01:05;100462.59;;;2.77;59.84
32851;BME280;19202;48.992;8.390;2022-12-16T18:07:02;100467.81;;;2.88;59.53
32851;BME280;19202;48.992;8.390;2022-12-16T18:12:59;100475.59;;;2.97;59.04
32851;BME280;19202;48.992;8.390;2022-12-16T18:18:56;100489.56;;;2.96;58.91
32851;BME280;19202;48.992;8.390;2022-12-16T18:24:53;100490.44;;;2.93;59.29
32851;BME280;19202;48.992;8.390;2022-12-16T18:30:50;100500.03;;;2.90;59.71
32851;BME280;19202;48.992;8.390;2022-12-16T18:36:47;100496.56;;;2.82;59.99
32851;BME280;19202;48.992;8.390;2022-12-16T18:42:44;100513.97;;;2.78;60.48
32851;BME280;19202;48.992;8.390;2022-12-16T18:48:41;100520.94;;;2.81;59.79
32851;BME280;19202;48.992;8.390;2022-12-16T18:54:37;100525.31;;;2.77;59.82
32851;BME280;19202;48.992;8.390;2022-12-16T19:00:34;100530.53;;;2.76;59.39
32851;BME280;19202;48.992;8.390;2022-12-16T19:06:31;100538.41;;;2.64;59.87
32851;BME280;19202;48.992;8.390;2022-12-16T19:12:28;100542.72;;;2.66;59.61
32851;BME280;19202;48.992;8.390;2022-12-16T19:18:25;100551.44;;;2.59;60.09
32851;BME280;19202;48.992;8.390;2022-12-16T19:24:23;100561.03;;;2.57;60.02
32851;BME280;19202;48.992;8.390;2022-12-16T19:30:20;100571.47;;;2.52;59.95
32851;BME280;19202;48.992;8.390;2022-12-16T19:36:17;100580.19;;;2.45;60.34
32851;BME280;19202;48.992;8.390;2022-12-16T19:42:14;100580.19;;;2.33;60.69
32851;BME280;19202;48.992;8.390;2022-12-16T19:48:11;100593.19;;;2.32;60.63
32851;BME280;19202;48.992;8.390;2022-12-16T19:54:07;100593.22;;;2.29;60.96
32851;BME280;19202;48.992;8.390;2022-12-16T20:00:05;100608.00;;;2.19;60.94
32851;BME280;19202;48.992;8.390;2022-12-16T20:06:04;100617.53;;;2.14;61.16
32851;BME280;19202;48.992;8.390;2022-12-16T20:12:01;100622.72;;;2.02;61.79
32851;BME280;19202;48.992;8.390;2022-12-16T20:17:58;100635.78;;;1.99;61.79
32851;BME280;19202;48.992;8.390;2022-12-16T20:23:57;100636.59;;;1.92;61.63
32851;BME280;19202;48.992;8.390;2022-12-16T20:29:53;100647.03;;;1.89;61.58
32851;BME280;19202;48.992;8.390;2022-12-16T20:35:58;100640.91;;;1.78;62.66
32851;BME280;19202;48.992;8.390;2022-12-16T20:41:55;100651.31;;;1.72;62.11
32851;BME280;19202;48.992;8.390;2022-12-16T20:47:52;100660.84;;;1.68;61.87
32851;BME280;19202;48.992;8.390;2022-12-16T20:53:50;100662.59;;;1.66;61.87
32851;BME280;19202;48.992;8.390;2022-12-16T20:59:47;100674.66;;;1.46;63.36
32851;BME280;19202;48.992;8.390;2022-12-16T21:05:44;100685.97;;;1.47;63.25
32851;BME280;19202;48.992;8.390;2022-12-16T21:11:41;100698.06;;;1.42;63.68
32851;BME280;19202;48.992;8.390;2022-12-16T21:17:38;100704.13;;;1.38;63.58
32851;BME280;19202;48.992;8.390;2022-12-16T21:23:34;100706.69;;;1.32;64.73
32851;BME280;19202;48.992;8.390;2022-12-16T21:29:31;100717.13;;;1.32;64.23
32851;BME280;19202;48.992;8.390;2022-12-16T21:35:28;100717.97;;;1.28;64.67
32851;BME280;19202;48.992;8.390;2022-12-16T21:41:25;100729.22;;;1.24;64.41
32851;BME280;19202;48.992;8.390;2022-12-16T21:47:22;100748.34;;;1.23;64.16
32851;BME280;19202;48.992;8.390;2022-12-16T21:53:19;100750.06;;;1.21;63.99
32851;BME280;19202;48.992;8.390;2022-12-16T21:59:16;100773.41;;;1.12;64.61
32851;BME280;19202;48.992;8.390;2022-12-16T22:05:13;100781.91;;;0.91;65.22
32851;BME280;19202;48.992;8.390;2022-12-16T22:11:12;100788.81;;;0.88;65.02
32851;BME280;19202;48.992;8.390;2022-12-16T22:17:09;100795.75;;;0.85;64.67
32851;BME280;19202;48.992;8.390;2022-12-16T22:23:05;100813.97;;;0.82;64.56
32851;BME280;19202;48.992;8.390;2022-12-16T22:29:02;100809.41;;;0.65;65.47
32851;BME280;19202;48.992;8.390;2022-12-16T22:34:59;100822.25;;;0.48;65.81
32851;BME280;19202;48.992;8.390;2022-12-16T22:40:57;100826.50;;;0.45;65.60
32851;BME280;19202;48.992;8.390;2022-12-16T22:46:54;100832.53;;;0.39;65.67
32851;BME280;19202;48.992;8.390;2022-12-16T22:52:51;100834.13;;;0.28;65.74
32851;BME280;19202;48.992;8.390;2022-12-16T22:58:48;100845.34;;;0.26;65.80
32851;BME280;19202;48.992;8.390;2022-12-16T23:04:44;100848.75;;;0.20;65.85
32851;BME280;19202;48.992;8.390;2022-12-16T23:10:41;100852.16;;;0.16;65.84
32851;BME280;19202;48.992;8.390;2022-12-16T23:16:38;100853.00;;;0.15;66.30
32851;BME280;19202;48.992;8.390;2022-12-16T23:22:35;100860.72;;;0.09;66.32
32851;BME280;19202;48.992;8.390;2022-12-16T23:28:32;100871.09;;;0.06;66.45
32851;BME280;19202;48.992;8.390;2022-12-16T23:34:29;100868.28;;;-0.08;67.02
32851;BME280;19202;48.992;8.390;2022-12-16T23:40:26;100873.38;;;-0.14;67.16
32851;BME280;19202;48.992;8.390;2022-12-16T23:46:23;100883.75;;;-0.15;67.18
32851;BME280;19202;48.992;8.390;2022-12-16T23:52:20;100882.03;;;-0.16;67.16
32851;BME280;19202;48.992;8.390;2022-12-16T23:58:17;100885.47;;;-0.17;67.18
